createdAt,value
2017-06-25T00:00:47.560Z,9.00
2017-06-25T00:03:15.076Z,8.53
2017-06-25T00:05:43.350Z,8.67
2017-06-25T00:08:11.639Z,8.97
2017-06-25T00:10:39.180Z,9.13
2017-06-25T00:13:06.689Z,8.17
2017-06-25T00:15:34.282Z,8.73
2017-06-25T00:18:01.802Z,8.83
2017-06-25T00:20:29.305Z,9.33
2017-06-25T00:22:56.848Z,9.50
2017-06-25T00:25:24.375Z,10.73
2017-06-25T00:27:52.176Z,10.40
2017-06-25T00:30:19.673Z,9.43
2017-06-25T00:32:47.232Z,9.37
2017-06-25T00:35:14.758Z,11.00
2017-06-25T00:37:42.312Z,8.27
2017-06-25T00:40:10.069Z,9.10
2017-06-25T00:42:37.587Z,8.10
2017-06-25T00:45:05.132Z,9.43
2017-06-25T00:47:33.443Z,9.80
2017-06-25T00:50:01.222Z,10.60
2017-06-25T00:52:28.771Z,8.60
2017-06-25T00:54:56.323Z,8.57
2017-06-25T00:57:23.825Z,8.47
2017-06-25T00:59:51.336Z,8.87
2017-06-25T01:02:18.890Z,8.27
2017-06-25T01:04:46.407Z,10.10
2017-06-25T01:07:14.036Z,7.97
2017-06-25T01:09:41.610Z,7.60
2017-06-25T01:12:09.475Z,9.50
2017-06-25T01:14:36.989Z,9.03
2017-06-25T01:17:05.427Z,9.57
2017-06-25T01:19:32.969Z,9.13
2017-06-25T01:22:00.493Z,10.60
2017-06-25T01:24:28.845Z,7.63
2017-06-25T01:26:56.385Z,9.53
2017-06-25T01:29:24.023Z,8.90
2017-06-25T01:31:51.605Z,8.63
2017-06-25T01:34:19.275Z,9.00
2017-06-25T01:36:46.819Z,8.70
2017-06-25T01:39:14.435Z,9.60
2017-06-25T01:41:41.986Z,9.53
2017-06-25T01:44:09.486Z,9.03
2017-06-25T01:46:37.033Z,9.90
2017-06-25T01:49:04.550Z,9.80
2017-06-25T01:51:32.176Z,10.20
2017-06-25T01:53:59.724Z,9.43
2017-06-25T01:56:27.411Z,9.23
2017-06-25T01:58:54.960Z,9.60
2017-06-25T02:01:22.496Z,9.37
2017-06-25T02:03:50.070Z,9.33
2017-06-25T02:06:17.575Z,9.90
2017-06-25T02:08:45.860Z,9.83
2017-06-25T02:11:13.751Z,9.90
2017-06-25T02:13:41.312Z,9.63
2017-06-25T02:16:08.828Z,10.07
2017-06-25T02:18:36.488Z,8.70
2017-06-25T02:21:04.229Z,8.40
2017-06-25T02:23:32.566Z,9.47
2017-06-25T02:26:00.087Z,8.50
2017-06-25T02:28:27.634Z,9.50
2017-06-25T02:30:55.313Z,8.40
2017-06-25T02:33:22.885Z,8.77
2017-06-25T02:35:50.403Z,8.37
2017-06-25T02:38:17.920Z,8.67
2017-06-25T02:40:45.737Z,8.00
2017-06-25T02:43:13.242Z,8.63
2017-06-25T02:45:40.770Z,8.40
2017-06-25T02:48:08.295Z,6.97
2017-06-25T02:50:35.844Z,8.40
2017-06-25T02:53:03.349Z,7.00
2017-06-25T02:55:30.895Z,7.97
2017-06-25T02:57:58.401Z,8.93
2017-06-25T03:00:25.975Z,8.73
2017-06-25T03:02:53.491Z,8.93
2017-06-25T03:05:21.009Z,8.50
2017-06-25T03:07:48.541Z,9.40
2017-06-25T03:10:16.064Z,9.50
2017-06-25T03:12:43.624Z,8.63
2017-06-25T03:15:11.180Z,9.37
2017-06-25T03:17:38.707Z,9.00
2017-06-25T03:20:06.249Z,8.90
2017-06-25T03:22:33.805Z,8.83
2017-06-25T03:25:01.602Z,8.27
2017-06-25T03:27:29.122Z,9.03
2017-06-25T03:29:56.658Z,8.80
2017-06-25T03:32:24.487Z,9.50
2017-06-25T03:34:52.030Z,8.80
2017-06-25T03:37:19.538Z,8.77
2017-06-25T03:39:47.073Z,9.50
2017-06-25T03:42:14.599Z,10.07
2017-06-25T03:44:42.154Z,11.13
2017-06-25T03:47:09.666Z,10.30
2017-06-25T03:49:37.175Z,9.47
2017-06-25T03:52:04.713Z,9.40
2017-06-25T03:54:32.232Z,10.10
2017-06-25T03:56:59.778Z,8.30
2017-06-25T03:59:27.274Z,7.80
2017-06-25T04:01:54.890Z,10.40
2017-06-25T04:04:22.644Z,9.90
2017-06-25T04:06:50.186Z,9.30
2017-06-25T04:09:17.728Z,8.47
2017-06-25T04:11:45.243Z,10.20
2017-06-25T04:14:12.797Z,9.73
2017-06-25T04:16:40.309Z,9.77
2017-06-25T04:19:07.868Z,8.40
2017-06-25T04:21:35.388Z,8.60
2017-06-25T04:24:02.894Z,8.37
2017-06-25T04:26:31.530Z,9.70
2017-06-25T04:28:59.044Z,8.10
2017-06-25T04:31:26.619Z,8.50
2017-06-25T04:33:54.130Z,10.03
2017-06-25T04:36:21.671Z,9.30
2017-06-25T04:38:49.183Z,7.70
2017-06-25T04:41:16.722Z,9.90
2017-06-25T04:43:44.243Z,9.47
2017-06-25T04:46:11.788Z,9.27
2017-06-25T04:48:39.327Z,9.00
2017-06-25T04:51:06.957Z,8.23
2017-06-25T04:53:35.266Z,7.57
2017-06-25T04:56:02.784Z,7.20
2017-06-25T04:58:30.626Z,8.10
2017-06-25T05:00:58.134Z,8.27
2017-06-25T05:03:26.458Z,7.27
2017-06-25T05:05:53.962Z,8.07
2017-06-25T05:08:21.473Z,7.57
2017-06-25T05:10:49.023Z,9.37
2017-06-25T05:13:16.526Z,8.67
2017-06-25T05:15:44.074Z,9.30
2017-06-25T05:18:11.600Z,9.53
2017-06-25T05:20:39.138Z,7.70
2017-06-25T05:23:06.680Z,8.70
2017-06-25T05:25:34.195Z,7.73
2017-06-25T05:28:01.739Z,8.40
2017-06-25T05:30:29.484Z,9.17
2017-06-25T05:32:57.023Z,9.03
2017-06-25T05:35:25.555Z,7.50
2017-06-25T05:37:53.098Z,6.80
2017-06-25T05:40:20.665Z,7.40
2017-06-25T05:42:48.166Z,8.23
2017-06-25T05:45:15.709Z,8.47
2017-06-25T05:47:43.210Z,7.30
2017-06-25T05:50:10.738Z,7.57
2017-06-25T05:52:38.253Z,7.30
2017-06-25T05:55:05.794Z,7.90
2017-06-25T05:57:33.321Z,7.63
2017-06-25T06:00:00.885Z,7.83
2017-06-25T06:02:28.381Z,8.10
2017-06-25T06:04:55.895Z,6.77
2017-06-25T06:07:23.741Z,8.77
2017-06-25T06:09:51.264Z,7.20
2017-06-25T06:12:18.802Z,8.27
2017-06-25T06:14:46.301Z,9.90
2017-06-25T06:17:13.888Z,8.37
2017-06-25T06:19:41.417Z,9.07
2017-06-25T06:22:08.922Z,7.90
2017-06-25T06:24:36.458Z,8.90
2017-06-25T06:27:03.994Z,9.00
2017-06-25T06:29:31.535Z,8.23
2017-06-25T06:31:59.038Z,7.83
2017-06-25T06:34:26.583Z,7.93
2017-06-25T06:36:54.858Z,8.93
2017-06-25T06:39:22.438Z,9.07
2017-06-25T06:41:49.948Z,8.87
2017-06-25T06:44:17.494Z,10.13
2017-06-25T06:46:45.054Z,9.50
2017-06-25T06:49:12.563Z,9.73
2017-06-25T06:51:40.109Z,10.27
2017-06-25T06:54:07.623Z,10.07
2017-06-25T06:56:35.283Z,10.80
2017-06-25T06:59:03.827Z,10.33
2017-06-25T07:01:31.340Z,10.70
2017-06-25T07:03:58.908Z,11.20
2017-06-25T07:06:26.464Z,11.00
2017-06-25T07:08:54.018Z,10.17
2017-06-25T07:11:21.582Z,10.10
2017-06-25T07:13:49.386Z,10.13
2017-06-25T07:16:17.380Z,8.77
2017-06-25T07:18:44.901Z,7.17
2017-06-25T07:21:12.408Z,9.03
2017-06-25T07:23:41.060Z,9.23
2017-06-25T07:26:08.615Z,10.17
2017-06-25T07:28:36.157Z,9.77
2017-06-25T07:31:03.689Z,9.30
2017-06-25T07:33:32.022Z,9.10
2017-06-25T07:35:59.534Z,9.43
2017-06-25T07:38:27.071Z,10.30
2017-06-25T07:40:54.632Z,8.53
2017-06-25T07:43:22.910Z,9.07
2017-06-25T07:45:50.418Z,8.53
2017-06-25T07:48:17.963Z,6.80
2017-06-25T07:50:45.515Z,8.60
2017-06-25T07:53:13.028Z,7.90
2017-06-25T07:55:40.579Z,7.63
2017-06-25T07:58:08.281Z,8.73
2017-06-25T08:00:36.570Z,8.40
2017-06-25T08:03:04.105Z,7.33
2017-06-25T08:05:31.947Z,8.00
2017-06-25T08:07:59.494Z,8.10
2017-06-25T08:10:27.001Z,8.33
2017-06-25T08:12:55.314Z,7.73
2017-06-25T08:15:22.876Z,7.80
2017-06-25T08:17:50.432Z,7.00
2017-06-25T08:20:17.942Z,5.60
2017-06-25T08:22:45.459Z,5.77
2017-06-25T08:25:13.112Z,6.07
2017-06-25T08:27:40.622Z,5.77
2017-06-25T08:30:08.175Z,6.33
2017-06-25T08:32:35.688Z,4.57
2017-06-25T08:35:03.191Z,8.33
2017-06-25T08:37:30.743Z,5.70
2017-06-25T08:39:58.251Z,5.37
2017-06-25T08:42:25.848Z,5.90
2017-06-25T08:44:53.371Z,5.47
2017-06-25T08:47:20.913Z,6.40
2017-06-25T08:49:49.551Z,5.73
2017-06-25T08:52:17.127Z,6.40
2017-06-25T08:54:44.663Z,5.47
2017-06-25T08:57:12.187Z,6.10
2017-06-25T08:59:39.732Z,11.90
2017-06-25T09:02:07.234Z,6.50
2017-06-25T09:04:34.829Z,6.10
2017-06-25T09:07:02.346Z,6.10
2017-06-25T09:09:29.861Z,7.20
2017-06-25T09:11:58.167Z,6.83
2017-06-25T09:14:25.678Z,6.77
2017-06-25T09:16:53.227Z,7.37
2017-06-25T09:19:20.834Z,6.33
2017-06-25T09:21:49.120Z,6.50
2017-06-25T09:24:16.641Z,6.17
2017-06-25T09:26:44.184Z,7.07
2017-06-25T09:29:11.715Z,6.73
2017-06-25T09:31:39.265Z,6.40
2017-06-25T09:34:06.836Z,6.20
2017-06-25T09:36:34.351Z,6.90
2017-06-25T09:39:01.859Z,6.60
2017-06-25T09:41:29.407Z,6.63
2017-06-25T09:43:56.934Z,7.27
2017-06-25T09:46:24.534Z,7.63
2017-06-25T09:48:52.060Z,7.10
2017-06-25T09:51:19.598Z,6.70
2017-06-25T09:53:47.155Z,7.40
2017-06-25T09:56:15.986Z,7.70
2017-06-25T09:58:43.587Z,6.27
2017-06-25T10:01:11.095Z,6.40
2017-06-25T10:03:38.638Z,6.63
2017-06-25T10:06:06.157Z,6.80
2017-06-25T10:08:33.838Z,5.80
2017-06-25T10:11:01.384Z,6.07
2017-06-25T10:13:28.902Z,5.17
2017-06-25T10:15:56.461Z,5.40
2017-06-25T10:18:23.985Z,4.90
2017-06-25T10:20:51.586Z,4.40
2017-06-25T10:23:19.553Z,4.47
2017-06-25T10:25:47.216Z,4.30
2017-06-25T10:28:16.519Z,4.50
2017-06-25T10:30:44.523Z,4.47
2017-06-25T10:33:12.146Z,4.23
2017-06-25T10:35:39.697Z,4.03
2017-06-25T10:38:07.234Z,4.30
2017-06-25T10:40:36.712Z,4.50
2017-06-25T10:43:04.392Z,4.47
2017-06-25T10:45:31.906Z,4.20
2017-06-25T10:47:59.468Z,4.87
2017-06-25T10:50:27.037Z,4.93
2017-06-25T10:52:54.560Z,4.20
2017-06-25T10:55:22.973Z,4.93
2017-06-25T10:57:50.487Z,5.57
2017-06-25T11:00:18.839Z,4.57
2017-06-25T11:02:46.349Z,5.23
2017-06-25T11:05:13.858Z,4.30
2017-06-25T11:07:41.471Z,4.30
2017-06-25T11:10:09.031Z,4.57
2017-06-25T11:12:36.555Z,4.33
2017-06-25T11:15:04.157Z,4.30
2017-06-25T11:17:31.897Z,4.23
2017-06-25T11:19:59.434Z,3.90
2017-06-25T11:22:26.981Z,4.00
2017-06-25T11:24:54.499Z,4.30
2017-06-25T11:27:23.714Z,4.97
2017-06-25T11:29:51.291Z,4.23
2017-06-25T11:32:19.026Z,4.37
2017-06-25T11:34:46.578Z,3.50
2017-06-25T11:37:14.094Z,3.40
2017-06-25T11:39:41.663Z,3.93
2017-06-25T11:42:09.312Z,3.53
2017-06-25T11:44:36.912Z,4.23
2017-06-25T11:47:04.470Z,3.77
2017-06-25T11:49:32.022Z,3.40
2017-06-25T11:51:59.550Z,4.00
2017-06-25T11:54:27.131Z,3.50
2017-06-25T11:56:54.951Z,3.23
2017-06-25T11:59:22.611Z,3.30
2017-06-25T12:01:50.203Z,3.43
2017-06-25T12:04:17.823Z,2.60
2017-06-25T12:06:45.326Z,3.00
2017-06-25T12:09:13.275Z,2.63
2017-06-25T12:11:41.441Z,3.20
2017-06-25T12:14:08.956Z,2.80
2017-06-25T12:16:36.546Z,2.90
2017-06-25T12:19:04.163Z,2.90
2017-06-25T12:21:34.729Z,2.93
2017-06-25T12:24:02.399Z,4.13
2017-06-25T12:26:30.021Z,3.63
2017-06-25T12:28:58.323Z,4.00
2017-06-25T12:31:25.832Z,3.77
2017-06-25T12:33:53.368Z,5.53
2017-06-25T12:36:20.953Z,3.60
2017-06-25T12:38:48.495Z,3.70
2017-06-25T12:41:16.051Z,3.40
2017-06-25T12:43:43.710Z,4.17
2017-06-25T12:46:11.323Z,3.90
2017-06-25T12:48:39.130Z,3.70
2017-06-25T12:51:06.735Z,3.80
2017-06-25T12:53:34.343Z,4.10
2017-06-25T12:56:01.882Z,3.80
2017-06-25T12:58:29.438Z,3.70
2017-06-25T13:00:57.024Z,3.70
2017-06-25T13:03:24.801Z,4.30
2017-06-25T13:05:52.326Z,3.90
2017-06-25T13:08:20.238Z,3.07
2017-06-25T13:10:47.792Z,4.17
2017-06-25T13:13:15.302Z,2.83
2017-06-25T13:15:42.845Z,3.67
2017-06-25T13:18:12.534Z,3.73
2017-06-25T13:20:40.103Z,2.80
2017-06-25T13:23:07.611Z,3.50
2017-06-25T13:25:35.189Z,3.63
2017-06-25T13:28:02.759Z,3.30
2017-06-25T13:30:30.349Z,4.13
2017-06-25T13:32:57.912Z,3.43
2017-06-25T13:35:26.187Z,3.97
2017-06-25T13:37:53.823Z,3.90
2017-06-25T13:40:21.437Z,4.00
2017-06-25T13:42:48.994Z,3.60
2017-06-25T13:45:17.329Z,3.97
2017-06-25T13:47:44.963Z,4.70
2017-06-25T13:50:12.491Z,2.50
2017-06-25T13:52:40.050Z,3.70
2017-06-25T13:55:07.570Z,4.07
2017-06-25T13:57:35.110Z,3.07
2017-06-25T14:00:03.486Z,2.77
2017-06-25T14:02:31.068Z,3.33
2017-06-25T14:04:58.601Z,3.00
2017-06-25T14:07:26.157Z,3.33
2017-06-25T14:09:53.718Z,2.70
2017-06-25T14:12:21.238Z,2.90
2017-06-25T14:14:48.785Z,3.03
2017-06-25T14:17:16.296Z,2.20
2017-06-25T14:19:43.847Z,2.87
2017-06-25T14:22:11.358Z,3.00
2017-06-25T14:24:39.587Z,2.77
2017-06-25T14:27:07.138Z,2.53
2017-06-25T14:29:34.927Z,3.10
2017-06-25T14:32:02.653Z,2.70
2017-06-25T14:34:30.179Z,3.17
2017-06-25T14:36:57.723Z,3.23
2017-06-25T14:39:25.259Z,2.80
2017-06-25T14:41:52.827Z,2.87
2017-06-25T14:44:20.388Z,3.20
2017-06-25T14:46:48.132Z,2.70
2017-06-25T14:49:15.664Z,3.13
2017-06-25T14:51:43.985Z,3.00
2017-06-25T14:54:11.512Z,2.90
2017-06-25T14:56:39.111Z,2.90
2017-06-25T14:59:07.349Z,3.30
2017-06-25T15:01:34.850Z,3.57
2017-06-25T15:04:02.493Z,3.43
2017-06-25T15:06:30.003Z,3.50
2017-06-25T15:08:57.573Z,3.20
2017-06-25T15:11:25.096Z,3.00
2017-06-25T15:13:52.606Z,3.40
2017-06-25T15:16:20.161Z,2.63
2017-06-25T15:18:47.710Z,3.27
2017-06-25T15:21:15.256Z,3.10
2017-06-25T15:23:42.761Z,2.87
2017-06-25T15:26:10.304Z,3.20
2017-06-25T15:28:37.860Z,3.43
2017-06-25T15:31:05.506Z,3.67
2017-06-25T15:33:33.109Z,4.13
2017-06-25T15:36:00.686Z,3.17
2017-06-25T15:38:28.268Z,2.80
2017-06-25T15:40:55.812Z,3.30
2017-06-25T15:43:23.387Z,3.10
2017-06-25T15:45:51.011Z,3.50
2017-06-25T15:48:18.572Z,3.37
2017-06-25T15:50:46.195Z,3.70
2017-06-25T15:53:13.722Z,4.20
2017-06-25T15:55:41.302Z,4.13
2017-06-25T15:58:09.582Z,4.50
2017-06-25T16:00:37.092Z,4.87
2017-06-25T16:03:04.650Z,4.23
2017-06-25T16:05:32.209Z,4.70
2017-06-25T16:07:59.811Z,4.53
2017-06-25T16:10:27.328Z,4.37
2017-06-25T16:12:54.904Z,5.47
2017-06-25T16:15:22.415Z,4.37
2017-06-25T16:17:49.934Z,4.33
2017-06-25T16:20:17.545Z,5.93
2017-06-25T16:22:45.084Z,5.03
2017-06-25T16:25:12.607Z,6.37
2017-06-25T16:27:40.157Z,5.50
2017-06-25T16:30:07.671Z,5.53
2017-06-25T16:32:35.993Z,4.57
2017-06-25T16:35:04.717Z,4.60
2017-06-25T16:37:32.245Z,4.20
2017-06-25T16:39:59.798Z,4.40
2017-06-25T16:42:27.327Z,4.20
2017-06-25T16:44:54.899Z,3.57
2017-06-25T16:47:22.478Z,4.80
2017-06-25T16:49:50.058Z,4.30
2017-06-25T16:52:18.420Z,4.90
2017-06-25T16:54:45.986Z,6.40
2017-06-25T16:57:13.499Z,7.23
2017-06-25T16:59:41.257Z,6.47
2017-06-25T17:02:08.805Z,5.90
2017-06-25T17:04:37.402Z,4.97
2017-06-25T17:07:04.970Z,4.80
2017-06-25T17:09:32.515Z,4.73
2017-06-25T17:12:00.208Z,5.87
2017-06-25T17:14:27.806Z,6.20
2017-06-25T17:16:55.358Z,5.80
2017-06-25T17:19:22.987Z,7.80
2017-06-25T17:21:50.563Z,6.30
2017-06-25T17:24:18.103Z,5.20
2017-06-25T17:26:45.655Z,5.43
2017-06-25T17:29:13.193Z,5.27
2017-06-25T17:31:41.650Z,6.37
2017-06-25T17:34:09.202Z,6.73
2017-06-25T17:36:36.750Z,7.10
2017-06-25T17:39:04.266Z,8.17
2017-06-25T17:41:32.170Z,7.37
2017-06-25T17:43:59.727Z,9.00
2017-06-25T17:46:27.248Z,7.20
2017-06-25T17:48:54.810Z,6.67
2017-06-25T17:51:22.356Z,7.63
2017-06-25T17:53:49.876Z,7.80
2017-06-25T17:56:17.459Z,7.77
2017-06-25T17:58:44.987Z,6.13
2017-06-25T18:01:12.543Z,4.97
2017-06-25T18:03:40.060Z,5.07
2017-06-25T18:06:07.631Z,5.63
2017-06-25T18:08:35.147Z,5.13
2017-06-25T18:11:02.798Z,6.50
2017-06-25T18:13:30.342Z,6.77
2017-06-25T18:15:58.927Z,5.90
2017-06-25T18:18:26.461Z,6.60
2017-06-25T18:20:54.097Z,6.00
2017-06-25T18:23:22.388Z,5.87
2017-06-25T18:25:50.136Z,4.50
2017-06-25T18:28:18.450Z,5.67
2017-06-25T18:30:46.125Z,4.33
2017-06-25T18:33:13.713Z,5.40
2017-06-25T18:35:41.300Z,6.57
2017-06-25T18:38:09.619Z,5.10
2017-06-25T18:40:37.296Z,4.37
2017-06-25T18:43:04.907Z,5.10
2017-06-25T18:45:32.559Z,4.67
2017-06-25T18:48:01.003Z,4.80
2017-06-25T18:50:28.625Z,5.97
2017-06-25T18:52:56.289Z,5.53
2017-06-25T18:55:24.059Z,5.70
2017-06-25T18:57:52.313Z,4.83
2017-06-25T19:00:20.224Z,5.93
2017-06-25T19:02:49.065Z,6.23
2017-06-25T19:05:17.053Z,6.13
2017-06-25T19:07:45.175Z,5.97
2017-06-25T19:10:13.020Z,7.07
2017-06-25T19:12:40.929Z,5.67
2017-06-25T19:15:08.746Z,7.07
2017-06-25T19:17:36.672Z,11.10
2017-06-25T19:20:04.460Z,7.10
2017-06-25T19:22:32.246Z,6.03
2017-06-25T19:25:00.123Z,5.60
2017-06-25T19:27:28.023Z,7.20
2017-06-25T19:29:55.885Z,7.00
2017-06-25T19:32:23.998Z,9.63
2017-06-25T19:34:51.790Z,6.13
2017-06-25T19:37:19.666Z,6.80
2017-06-25T19:39:47.456Z,7.57
2017-06-25T19:42:15.270Z,7.83
2017-06-25T19:44:43.074Z,7.60
2017-06-25T19:47:11.635Z,6.93
2017-06-25T19:49:39.452Z,6.93
2017-06-25T19:52:07.245Z,6.37
2017-06-25T19:54:35.031Z,7.80
2017-06-25T19:57:02.777Z,6.20
2017-06-25T19:59:30.591Z,6.47
2017-06-25T20:01:59.225Z,5.43
2017-06-25T20:04:26.998Z,8.33
2017-06-25T20:06:55.574Z,6.63
2017-06-25T20:09:23.127Z,6.40
2017-06-25T20:11:50.854Z,6.63
2017-06-25T20:14:18.492Z,8.03
2017-06-25T20:16:46.063Z,7.27
2017-06-25T20:19:13.583Z,6.40
2017-06-25T20:21:41.094Z,6.00
2017-06-25T20:24:08.634Z,8.40
2017-06-25T20:26:36.242Z,9.60
2017-06-25T20:29:05.087Z,6.10
2017-06-25T20:31:32.749Z,6.90
2017-06-25T20:34:00.291Z,7.37
2017-06-25T20:36:27.798Z,7.50
2017-06-25T20:38:55.391Z,8.00
2017-06-25T20:41:23.131Z,10.20
2017-06-25T20:43:50.703Z,12.67
2017-06-25T20:46:19.006Z,10.37
2017-06-25T20:48:46.756Z,9.60
2017-06-25T20:51:14.414Z,9.53
2017-06-25T20:53:42.726Z,10.00
2017-06-25T20:56:10.283Z,10.50
2017-06-25T20:58:37.950Z,9.10
2017-06-25T21:01:05.508Z,9.80
2017-06-25T21:03:33.034Z,9.03
2017-06-25T21:06:00.592Z,9.90
2017-06-25T21:08:28.971Z,10.07
2017-06-25T21:10:57.344Z,9.93
2017-06-25T21:13:25.655Z,9.87
2017-06-25T21:15:53.178Z,9.47
2017-06-25T21:18:21.485Z,10.97
2017-06-25T21:20:48.991Z,10.87
2017-06-25T21:23:16.622Z,10.40
2017-06-25T21:25:44.143Z,12.67
2017-06-25T21:28:12.471Z,14.23
2017-06-25T21:30:39.975Z,16.07
2017-06-25T21:33:08.335Z,16.07
2017-06-25T21:35:35.852Z,14.13
2017-06-25T21:38:03.406Z,14.10
2017-06-25T21:40:31.071Z,11.60
2017-06-25T21:42:58.663Z,8.40
2017-06-25T21:45:26.196Z,6.60
2017-06-25T21:47:53.706Z,5.90
2017-06-25T21:50:21.257Z,5.63
2017-06-25T21:52:48.773Z,6.10
2017-06-25T21:55:16.279Z,6.10
2017-06-25T21:57:43.832Z,5.07
2017-06-25T22:00:11.394Z,7.30
2017-06-25T22:02:39.230Z,5.80
2017-06-25T22:05:06.736Z,6.47
2017-06-25T22:07:35.010Z,7.27
2017-06-25T22:10:03.318Z,6.87
2017-06-25T22:12:30.821Z,8.17
2017-06-25T22:14:58.372Z,7.60
2017-06-25T22:17:25.875Z,7.10
2017-06-25T22:19:54.298Z,7.97
2017-06-25T22:22:21.814Z,8.60
2017-06-25T22:24:49.621Z,8.10
2017-06-25T22:27:17.174Z,9.00
2017-06-25T22:29:44.733Z,6.97
2017-06-25T22:32:12.251Z,9.13
2017-06-25T22:34:40.565Z,8.80
2017-06-25T22:37:08.105Z,10.00
2017-06-25T22:39:35.659Z,7.27
2017-06-25T22:42:03.172Z,7.73
2017-06-25T22:44:30.747Z,8.70
2017-06-25T22:46:58.326Z,9.23
2017-06-25T22:49:26.646Z,8.20
2017-06-25T22:51:54.161Z,8.97
2017-06-25T22:54:21.715Z,7.73
2017-06-25T22:56:49.218Z,7.90
2017-06-25T22:59:16.778Z,8.60
2017-06-25T23:01:44.294Z,8.37
2017-06-25T23:04:12.572Z,8.23
2017-06-25T23:06:41.001Z,8.70
2017-06-25T23:09:08.527Z,7.50
2017-06-25T23:11:36.065Z,8.37
2017-06-25T23:14:03.579Z,7.70
2017-06-25T23:16:31.126Z,8.77
2017-06-25T23:18:58.638Z,8.90
2017-06-25T23:21:26.143Z,7.60
2017-06-25T23:23:53.702Z,9.43
2017-06-25T23:26:21.214Z,8.53
2017-06-25T23:28:48.755Z,8.60
2017-06-25T23:31:16.265Z,10.23
2017-06-25T23:33:43.803Z,8.73
2017-06-25T23:36:12.077Z,8.57
2017-06-25T23:38:40.405Z,10.40
2017-06-25T23:41:07.911Z,8.07
2017-06-25T23:43:35.437Z,9.63
2017-06-25T23:46:02.985Z,8.00
2017-06-25T23:48:30.545Z,9.30
2017-06-25T23:50:58.056Z,9.03
2017-06-25T23:53:26.347Z,8.07
2017-06-25T23:55:54.158Z,8.47
2017-06-25T23:58:21.676Z,9.00
